Time;durP1;ratioP1;P1;durP2;ratioP2;P2;SDS_P1;SDS_P2;PMS_P1;PMS_P2;Temp;Humidity;BMP_temperature;BMP_pressure;BME280_temperature;BME280_humidity;BME280_pressure;Samples;Min_cycle;Max_cycle;Signal;HPM_P1;HPM_P2
2021/07/13 00:01:03;;;;;;;;;;;20.50;99.90;;;;;;5083058;28;19928;-74
2021/07/13 00:03:30;;;;;;;;;;;20.30;99.90;;;;;;5113520;27;19939;-75
2021/07/13 00:05:57;;;;;;;;;;;20.30;99.90;;;;;;5080619;28;19940;-75
2021/07/13 00:08:24;;;;;;;;;;;20.30;99.90;;;;;;5078990;28;19928;-75
2021/07/13 00:10:51;;;;;;;;;;;20.30;99.90;;;;;;5085405;28;19932;-74
2021/07/13 00:13:18;;;;;;;;;;;20.30;99.90;;;;;;5078442;28;20027;-75
2021/07/13 00:15:45;;;;;;;;;;;20.20;99.90;;;;;;5078637;28;19993;-75
2021/07/13 00:18:12;;;;;;;;;;;20.10;99.90;;;;;;5076917;28;19988;-74
2021/07/13 00:20:39;;;;;;;;;;;20.10;99.90;;;;;;5078955;28;19939;-75
2021/07/13 00:23:06;;;;;;;;;;;20.20;99.90;;;;;;5075826;28;19924;-75
2021/07/13 00:25:34;;;;;;;;;;;20.30;99.90;;;;;;5074084;28;19932;-75
2021/07/13 00:28:01;;;;;;;;;;;20.30;99.90;;;;;;5083756;28;19924;-75
2021/07/13 00:30:31;;;;;;;;;;;20.20;99.90;;;;;;5072447;28;19924;-75
2021/07/13 00:32:58;;;;;;;;;;;20.20;99.90;;;;;;5091165;27;20027;-75
2021/07/13 00:35:24;;;;;;;;;;;20.10;99.90;;;;;;5078300;28;19924;-75
2021/07/13 00:37:52;;;;;;;;;;;20.20;99.90;;;;;;5074998;28;19924;-75
2021/07/13 00:40:19;;;;;;;;;;;20.20;99.90;;;;;;5076242;28;20311;-75
2021/07/13 00:42:47;;;;;;;;;;;20.20;99.90;;;;;;5075305;28;19936;-74
2021/07/13 00:45:14;;;;;;;;;;;20.20;99.90;;;;;;5080445;28;19924;-75
2021/07/13 00:47:41;;;;;;;;;;;20.20;99.90;;;;;;5076693;28;20326;-74
2021/07/13 00:50:08;;;;;;;;;;;20.10;99.90;;;;;;5078221;28;20023;-74
2021/07/13 00:52:35;;;;;;;;;;;20.20;99.90;;;;;;5075208;28;19944;-74
2021/07/13 00:55:03;;;;;;;;;;;20.20;99.90;;;;;;5083165;28;19928;-74
2021/07/13 00:57:30;;;;;;;;;;;20.20;99.90;;;;;;5078001;28;19925;-74
2021/07/13 00:59:56;;;;;;;;;;;20.10;99.90;;;;;;5080034;28;19935;-75
2021/07/13 01:02:24;;;;;;;;;;;20.20;99.90;;;;;;5071686;28;19928;-74
2021/07/13 01:04:54;;;;;;;;;;;20.10;99.90;;;;;;5080137;28;21906;-74
2021/07/13 01:07:34;;;;;;;;;;;20.00;99.90;;;;;;5077206;28;19966;-74
2021/07/13 01:10:16;;;;;;;;;;;20.00;99.90;;;;;;5077787;28;19932;-74
2021/07/13 01:12:46;;;;;;;;;;;20.20;99.90;;;;;;5091100;28;19927;-75
2021/07/13 01:15:20;;;;;;;;;;;20.20;99.90;;;;;;5079019;28;19940;-74
2021/07/13 01:18:23;;;;;;;;;;;20.30;99.90;;;;;;5075451;28;19924;-74
2021/07/13 01:20:50;;;;;;;;;;;20.30;99.90;;;;;;5025005;28;19928;-74
2021/07/13 01:23:36;;;;;;;;;;;20.10;99.90;;;;;;5062865;28;19925;-75
2021/07/13 01:26:09;;;;;;;;;;;20.20;99.90;;;;;;5081177;28;20513;-75
2021/07/13 01:28:40;;;;;;;;;;;20.10;99.90;;;;;;5108705;27;19932;-75
2021/07/13 01:31:10;;;;;;;;;;;20.10;99.90;;;;;;5075326;28;19935;-75
2021/07/13 01:33:37;;;;;;;;;;;20.00;99.90;;;;;;5075345;28;19950;-75
2021/07/13 01:36:18;;;;;;;;;;;20.10;99.90;;;;;;5075013;28;19929;-74
2021/07/13 01:38:46;;;;;;;;;;;20.10;99.90;;;;;;5082317;28;19931;-75
2021/07/13 01:41:18;;;;;;;;;;;20.00;99.90;;;;;;5081939;28;19994;-75
2021/07/13 01:43:45;;;;;;;;;;;19.90;99.90;;;;;;5072588;28;19932;-76
2021/07/13 01:46:15;;;;;;;;;;;19.90;99.90;;;;;;5074928;28;19943;-76
2021/07/13 01:48:42;;;;;;;;;;;19.90;99.90;;;;;;5076338;28;20307;-75
2021/07/13 01:51:10;;;;;;;;;;;19.90;99.90;;;;;;5072376;28;19932;-76
2021/07/13 01:53:37;;;;;;;;;;;19.80;99.90;;;;;;5071940;28;19990;-76
2021/07/13 01:56:05;;;;;;;;;;;19.80;99.90;;;;;;5076611;28;19931;-75
2021/07/13 01:58:33;;;;;;;;;;;19.90;99.90;;;;;;5077437;28;20380;-75
2021/07/13 02:01:04;;;;;;;;;;;19.90;99.90;;;;;;5076862;28;20354;-75
2021/07/13 02:03:32;;;;;;;;;;;19.80;99.90;;;;;;5075248;28;19970;-75
2021/07/13 02:06:00;;;;;;;;;;;19.80;99.90;;;;;;5076068;28;19928;-76
2021/07/13 02:08:27;;;;;;;;;;;19.90;99.90;;;;;;5077921;28;19928;-76
2021/07/13 02:10:54;;;;;;;;;;;19.80;99.90;;;;;;5080438;28;19932;-76
2021/07/13 02:13:21;;;;;;;;;;;19.80;99.90;;;;;;5076016;28;19928;-76
2021/07/13 02:15:48;;;;;;;;;;;19.60;99.90;;;;;;5073975;28;20290;-75
2021/07/13 02:18:15;;;;;;;;;;;19.70;99.90;;;;;;5073391;28;19928;-76
2021/07/13 02:20:43;;;;;;;;;;;19.60;99.90;;;;;;5079474;28;20319;-76
2021/07/13 02:23:11;;;;;;;;;;;19.60;99.90;;;;;;5073601;28;20360;-76
2021/07/13 02:25:39;;;;;;;;;;;19.60;99.90;;;;;;5077280;28;19939;-76
2021/07/13 02:28:06;;;;;;;;;;;19.60;99.90;;;;;;5075755;28;19931;-76
2021/07/13 02:30:34;;;;;;;;;;;19.60;99.90;;;;;;5075554;28;19924;-76
2021/07/13 02:33:02;;;;;;;;;;;19.60;99.90;;;;;;5070439;28;19924;-76
2021/07/13 02:35:38;;;;;;;;;;;19.60;99.90;;;;;;5074237;28;19925;-75
2021/07/13 02:38:06;;;;;;;;;;;19.50;99.90;;;;;;5082356;28;19928;-76
2021/07/13 02:40:34;;;;;;;;;;;19.60;99.90;;;;;;5076262;28;19977;-75
2021/07/13 02:43:01;;;;;;;;;;;19.60;99.90;;;;;;5075700;28;19928;-75
2021/07/13 02:45:28;;;;;;;;;;;19.70;99.90;;;;;;5076680;28;21447;-75
2021/07/13 02:47:56;;;;;;;;;;;19.70;99.90;;;;;;5071846;28;19935;-76
2021/07/13 02:50:24;;;;;;;;;;;19.70;99.90;;;;;;5073277;28;19978;-75
2021/07/13 02:52:52;;;;;;;;;;;19.70;99.90;;;;;;5073304;28;19928;-75
2021/07/13 02:55:20;;;;;;;;;;;19.70;99.90;;;;;;5074289;28;21613;-75
2021/07/13 02:57:49;;;;;;;;;;;19.70;99.90;;;;;;5079342;28;19925;-75
2021/07/13 03:00:17;;;;;;;;;;;19.80;99.90;;;;;;5077208;28;19931;-75
2021/07/13 03:02:46;;;;;;;;;;;19.70;99.90;;;;;;5072191;28;19928;-76
2021/07/13 03:05:14;;;;;;;;;;;19.70;99.90;;;;;;5074630;28;19960;-75
2021/07/13 03:07:41;;;;;;;;;;;19.60;99.90;;;;;;5071726;28;19932;-75
2021/07/13 03:10:08;;;;;;;;;;;19.50;99.90;;;;;;5071598;28;20360;-76
2021/07/13 03:12:35;;;;;;;;;;;19.60;99.90;;;;;;5077114;28;19985;-75
2021/07/13 03:15:03;;;;;;;;;;;19.70;99.90;;;;;;5104984;27;19940;-74
2021/07/13 03:17:30;;;;;;;;;;;19.70;99.90;;;;;;5076917;28;19932;-74
2021/07/13 03:19:57;;;;;;;;;;;19.70;99.90;;;;;;5085732;28;19925;-75
2021/07/13 03:22:24;;;;;;;;;;;19.60;99.90;;;;;;5077051;28;20363;-75
2021/07/13 03:24:51;;;;;;;;;;;19.60;99.90;;;;;;5093851;28;20333;-75
2021/07/13 03:27:20;;;;;;;;;;;19.70;99.90;;;;;;5111962;27;20309;-74
2021/07/13 03:29:49;;;;;;;;;;;19.60;99.90;;;;;;5072531;28;19928;-74
2021/07/13 03:32:17;;;;;;;;;;;19.50;99.90;;;;;;5077433;28;19924;-74
2021/07/13 03:34:44;;;;;;;;;;;19.50;99.90;;;;;;5080374;28;19935;-75
2021/07/13 03:37:11;;;;;;;;;;;19.60;99.90;;;;;;5079177;28;19970;-75
2021/07/13 03:39:38;;;;;;;;;;;19.60;99.90;;;;;;5076471;28;19931;-75
2021/07/13 03:42:06;;;;;;;;;;;19.70;99.90;;;;;;5078124;28;19954;-75
2021/07/13 03:44:33;;;;;;;;;;;19.60;99.90;;;;;;5084712;28;20566;-75
2021/07/13 03:47:00;;;;;;;;;;;19.60;99.90;;;;;;5078868;28;19932;-74
2021/07/13 03:49:28;;;;;;;;;;;19.60;99.90;;;;;;5077342;28;19935;-74
2021/07/13 03:51:55;;;;;;;;;;;19.60;99.90;;;;;;5077251;28;21944;-74
2021/07/13 03:54:22;;;;;;;;;;;19.60;99.90;;;;;;5084928;28;20379;-74
2021/07/13 03:56:50;;;;;;;;;;;19.60;99.90;;;;;;5096273;27;20825;-74
2021/07/13 03:59:17;;;;;;;;;;;19.50;99.90;;;;;;5073837;28;19936;-74
2021/07/13 04:01:44;;;;;;;;;;;19.50;99.90;;;;;;5083164;28;19924;-73
2021/07/13 04:04:11;;;;;;;;;;;19.50;99.90;;;;;;5078640;28;20355;-74
2021/07/13 04:06:38;;;;;;;;;;;19.50;99.90;;;;;;5079150;28;19924;-74
2021/07/13 04:09:06;;;;;;;;;;;19.60;99.90;;;;;;5079823;28;19977;-74
2021/07/13 04:11:33;;;;;;;;;;;19.40;99.90;;;;;;5071981;28;19958;-74
2021/07/13 04:14:00;;;;;;;;;;;19.40;99.90;;;;;;5074256;28;19928;-73
2021/07/13 04:16:27;;;;;;;;;;;19.40;99.90;;;;;;5075266;28;21070;-74
2021/07/13 04:18:54;;;;;;;;;;;19.40;99.90;;;;;;5075872;28;19933;-74
2021/07/13 04:21:21;;;;;;;;;;;19.40;99.90;;;;;;5081834;28;19986;-74
2021/07/13 04:23:48;;;;;;;;;;;19.40;99.90;;;;;;5085343;28;19932;-74
2021/07/13 04:26:15;;;;;;;;;;;19.50;99.90;;;;;;5077519;28;21406;-74
2021/07/13 04:28:42;;;;;;;;;;;19.60;99.90;;;;;;5080008;28;19978;-74
2021/07/13 04:31:09;;;;;;;;;;;19.50;99.90;;;;;;5074032;28;20375;-74
2021/07/13 04:33:36;;;;;;;;;;;19.60;99.90;;;;;;5078628;28;19928;-74
2021/07/13 04:36:03;;;;;;;;;;;19.60;99.90;;;;;;5074230;28;19924;-74
2021/07/13 04:38:30;;;;;;;;;;;19.60;99.90;;;;;;5094259;27;20324;-74
2021/07/13 04:40:57;;;;;;;;;;;19.70;99.90;;;;;;5078048;28;19925;-74
2021/07/13 04:43:24;;;;;;;;;;;19.60;99.90;;;;;;5078608;28;19935;-74
2021/07/13 04:45:52;;;;;;;;;;;19.60;99.90;;;;;;5071495;28;19928;-75
2021/07/13 04:48:19;;;;;;;;;;;19.70;99.90;;;;;;5074898;28;20046;-75
2021/07/13 04:50:45;;;;;;;;;;;19.60;99.90;;;;;;5073672;28;20010;-75
2021/07/13 04:53:12;;;;;;;;;;;19.60;99.90;;;;;;5076783;28;19928;-74
2021/07/13 04:55:39;;;;;;;;;;;19.70;99.90;;;;;;5077893;28;19932;-75
2021/07/13 04:58:06;;;;;;;;;;;19.70;99.90;;;;;;5078107;28;19986;-74
2021/07/13 05:00:33;;;;;;;;;;;19.90;99.90;;;;;;5073286;28;20509;-74
2021/07/13 05:03:00;;;;;;;;;;;19.80;99.90;;;;;;5090380;28;20253;-74
2021/07/13 05:05:27;;;;;;;;;;;19.90;99.90;;;;;;5076098;28;20542;-76
2021/07/13 05:07:53;;;;;;;;;;;19.90;99.90;;;;;;5076638;28;19936;-75
2021/07/13 05:10:21;;;;;;;;;;;19.90;99.90;;;;;;5077293;28;19974;-75
2021/07/13 05:12:47;;;;;;;;;;;19.90;99.90;;;;;;5105914;27;19928;-75
2021/07/13 05:15:15;;;;;;;;;;;19.90;99.90;;;;;;5079303;28;20274;-75
2021/07/13 05:17:42;;;;;;;;;;;20.00;99.90;;;;;;5070584;28;19928;-74
2021/07/13 05:20:12;;;;;;;;;;;20.00;99.90;;;;;;5073938;28;19924;-75
2021/07/13 05:22:39;;;;;;;;;;;20.00;99.90;;;;;;5075467;28;19928;-74
2021/07/13 05:25:07;;;;;;;;;;;20.00;99.90;;;;;;5072229;28;19932;-73
2021/07/13 05:27:41;;;;;;;;;;;19.90;99.90;;;;;;5075828;28;19932;-73
2021/07/13 05:30:09;;;;;;;;;;;19.90;99.90;;;;;;5081414;28;19970;-74
2021/07/13 05:32:36;;;;;;;;;;;19.80;99.90;;;;;;5071684;28;19939;-74
2021/07/13 05:35:04;;;;;;;;;;;19.90;99.90;;;;;;5073030;28;20002;-74
2021/07/13 05:37:33;;;;;;;;;;;19.90;99.90;;;;;;5071725;28;20443;-75
2021/07/13 05:40:02;;;;;;;;;;;19.90;99.90;;;;;;5073350;28;19935;-75
2021/07/13 05:42:29;;;;;;;;;;;19.90;99.90;;;;;;5070429;28;19939;-75
2021/07/13 05:44:56;;;;;;;;;;;20.00;99.90;;;;;;5073307;28;19932;-75
2021/07/13 05:47:23;;;;;;;;;;;20.00;99.90;;;;;;5073052;28;19932;-75
2021/07/13 05:49:50;;;;;;;;;;;20.00;99.90;;;;;;5074852;28;20386;-75
2021/07/13 05:52:17;;;;;;;;;;;20.10;99.90;;;;;;5103226;27;20062;-75
2021/07/13 05:54:43;;;;;;;;;;;20.10;99.90;;;;;;5074228;28;19925;-75
2021/07/13 05:57:10;;;;;;;;;;;20.10;99.90;;;;;;5072447;28;19932;-75
2021/07/13 05:59:37;;;;;;;;;;;20.10;99.90;;;;;;5076866;28;19931;-75
2021/07/13 06:02:04;;;;;;;;;;;20.20;99.90;;;;;;5076058;28;19931;-76
2021/07/13 06:04:31;;;;;;;;;;;20.30;99.90;;;;;;5075437;28;19982;-75
2021/07/13 06:06:59;;;;;;;;;;;20.30;99.90;;;;;;5072976;28;19924;-75
2021/07/13 06:09:29;;;;;;;;;;;20.40;99.90;;;;;;5082643;28;19932;-75
2021/07/13 06:11:56;;;;;;;;;;;20.40;99.90;;;;;;5075292;28;19932;-79
2021/07/13 06:14:23;;;;;;;;;;;20.50;99.90;;;;;;5076361;28;20003;-79
2021/07/13 06:17:03;;;;;;;;;;;20.40;99.90;;;;;;5076163;28;20390;-78
2021/07/13 06:19:30;;;;;;;;;;;20.40;99.90;;;;;;5079107;28;19924;-79
2021/07/13 06:21:57;;;;;;;;;;;20.40;99.90;;;;;;5076430;28;20393;-79
2021/07/13 06:24:24;;;;;;;;;;;20.30;99.90;;;;;;5073609;28;19924;-78
2021/07/13 06:26:51;;;;;;;;;;;20.30;99.90;;;;;;5074577;28;19968;-77
2021/07/13 06:29:18;;;;;;;;;;;20.30;99.90;;;;;;5081131;28;19928;-78
2021/07/13 06:31:45;;;;;;;;;;;20.30;99.90;;;;;;5075864;28;19942;-78
2021/07/13 06:34:12;;;;;;;;;;;20.40;99.90;;;;;;5088012;28;19932;-78
2021/07/13 06:36:39;;;;;;;;;;;20.40;99.90;;;;;;5078048;28;19925;-78
2021/07/13 06:39:06;;;;;;;;;;;20.50;99.90;;;;;;5080226;28;19955;-78
2021/07/13 06:41:33;;;;;;;;;;;20.50;99.90;;;;;;5075556;28;19928;-78
2021/07/13 06:44:00;;;;;;;;;;;20.40;99.90;;;;;;5081514;28;19924;-75
2021/07/13 06:46:27;;;;;;;;;;;20.40;99.90;;;;;;5076874;28;19955;-75
2021/07/13 06:48:54;;;;;;;;;;;20.40;99.90;;;;;;5109219;27;19931;-75
2021/07/13 06:51:20;;;;;;;;;;;20.40;99.90;;;;;;5077952;28;19924;-75
2021/07/13 06:53:47;;;;;;;;;;;20.40;99.90;;;;;;5077718;28;20379;-75
2021/07/13 06:56:15;;;;;;;;;;;20.40;99.90;;;;;;5081617;28;19928;-75
2021/07/13 06:58:42;;;;;;;;;;;20.40;99.90;;;;;;5077171;28;20001;-76
2021/07/13 07:01:09;;;;;;;;;;;20.40;99.90;;;;;;5077377;28;20295;-76
2021/07/13 07:03:38;;;;;;;;;;;20.40;99.90;;;;;;5078281;28;19931;-75
2021/07/13 07:06:05;;;;;;;;;;;20.50;99.90;;;;;;5083668;28;19929;-75
2021/07/13 07:08:31;;;;;;;;;;;20.60;99.90;;;;;;5080411;28;20429;-76
2021/07/13 07:11:08;;;;;;;;;;;20.60;99.90;;;;;;5080966;28;19924;-75
2021/07/13 07:13:35;;;;;;;;;;;20.60;99.90;;;;;;5078083;28;20421;-75
2021/07/13 07:16:03;;;;;;;;;;;20.60;99.90;;;;;;5081855;28;19924;-76
2021/07/13 07:18:29;;;;;;;;;;;20.50;99.90;;;;;;5077709;28;19925;-78
2021/07/13 07:20:56;;;;;;;;;;;20.70;99.90;;;;;;5078319;28;19968;-79
2021/07/13 07:23:23;;;;;;;;;;;20.70;99.90;;;;;;5082840;28;19924;-79
2021/07/13 07:25:50;;;;;;;;;;;20.80;99.90;;;;;;5075714;28;20402;-79
2021/07/13 07:28:17;;;;;;;;;;;20.80;99.90;;;;;;5080728;28;20337;-79
2021/07/13 07:30:44;;;;;;;;;;;20.70;99.90;;;;;;5082284;28;19924;-79
2021/07/13 07:33:11;;;;;;;;;;;20.80;99.90;;;;;;5081264;28;19928;-79
2021/07/13 07:35:38;;;;;;;;;;;20.60;99.90;;;;;;5084247;28;19979;-79
2021/07/13 07:38:05;;;;;;;;;;;20.70;99.90;;;;;;5076944;28;19948;-78
2021/07/13 07:40:32;;;;;;;;;;;20.60;99.90;;;;;;5078254;28;19932;-79
2021/07/13 07:42:59;;;;;;;;;;;20.60;99.90;;;;;;5078848;28;19932;-74
2021/07/13 07:45:26;;;;;;;;;;;20.50;99.90;;;;;;5077286;28;19977;-77
2021/07/13 07:47:53;;;;;;;;;;;20.50;99.90;;;;;;5080658;28;20041;-76
2021/07/13 07:50:21;;;;;;;;;;;20.50;99.90;;;;;;5112491;27;20294;-76
2021/07/13 07:52:48;;;;;;;;;;;20.50;99.90;;;;;;5080738;28;19924;-78
2021/07/13 07:55:16;;;;;;;;;;;20.50;99.90;;;;;;5080321;28;20001;-79
2021/07/13 07:57:42;;;;;;;;;;;20.50;99.90;;;;;;5076217;28;19925;-78
2021/07/13 08:00:14;;;;;;;;;;;20.60;99.90;;;;;;5082522;28;20020;-78
2021/07/13 08:02:41;;;;;;;;;;;20.60;99.90;;;;;;5078386;28;19978;-79
2021/07/13 08:05:09;;;;;;;;;;;20.50;99.90;;;;;;5083355;28;19932;-78
2021/07/13 08:07:36;;;;;;;;;;;20.60;99.90;;;;;;5078902;28;19985;-77
2021/07/13 08:10:04;;;;;;;;;;;20.50;99.90;;;;;;5082402;28;19946;-78
2021/07/13 08:12:31;;;;;;;;;;;20.30;99.90;;;;;;5080646;28;20380;-78
2021/07/13 08:14:58;;;;;;;;;;;20.30;99.90;;;;;;5082794;28;20326;-79
2021/07/13 08:17:25;;;;;;;;;;;20.30;99.90;;;;;;5081187;28;20276;-80
2021/07/13 08:19:52;;;;;;;;;;;20.20;99.90;;;;;;5090590;28;19985;-81
2021/07/13 08:22:18;;;;;;;;;;;20.10;99.90;;;;;;5079898;28;19932;-82
2021/07/13 08:24:47;;;;;;;;;;;20.10;99.90;;;;;;5121490;27;19928;-80
2021/07/13 08:27:15;;;;;;;;;;;20.20;99.90;;;;;;5080785;28;19924;-80
2021/07/13 08:29:42;;;;;;;;;;;20.20;99.90;;;;;;5088549;28;20351;-81
2021/07/13 08:32:09;;;;;;;;;;;20.20;99.90;;;;;;5082523;28;19932;-81
2021/07/13 08:34:36;;;;;;;;;;;20.30;99.90;;;;;;5088692;28;19928;-81
2021/07/13 08:37:04;;;;;;;;;;;20.40;99.90;;;;;;5122428;27;20260;-81
2021/07/13 08:39:31;;;;;;;;;;;20.50;99.90;;;;;;5085784;28;19924;-81
2021/07/13 08:41:59;;;;;;;;;;;20.50;99.90;;;;;;5083018;28;19977;-80
2021/07/13 08:44:27;;;;;;;;;;;20.50;99.90;;;;;;5086755;28;19924;-82
2021/07/13 08:46:54;;;;;;;;;;;20.50;99.90;;;;;;5087884;28;19928;-81
2021/07/13 08:49:22;;;;;;;;;;;20.50;99.90;;;;;;5087727;28;19978;-81
2021/07/13 08:51:49;;;;;;;;;;;20.60;99.90;;;;;;5113811;27;20420;-81
2021/07/13 08:54:16;;;;;;;;;;;20.60;99.90;;;;;;5082358;28;19999;-78
2021/07/13 08:56:43;;;;;;;;;;;20.60;99.90;;;;;;5085365;28;20020;-77
2021/07/13 08:59:10;;;;;;;;;;;20.60;99.90;;;;;;5085659;28;20421;-77
2021/07/13 09:01:37;;;;;;;;;;;20.50;99.90;;;;;;5080030;28;19935;-81
2021/07/13 09:04:05;;;;;;;;;;;20.50;99.90;;;;;;5087640;28;19989;-78
2021/07/13 09:06:49;;;;;;;;;;;20.50;99.90;;;;;;5084363;28;20374;-82
2021/07/13 09:09:24;;;;;;;;;;;20.40;99.90;;;;;;5086776;28;19924;-79
2021/07/13 09:12:09;;;;;;;;;;;20.40;99.90;;;;;;5079541;28;20303;-78
2021/07/13 09:14:46;;;;;;;;;;;20.40;99.90;;;;;;5085841;28;19930;-78
2021/07/13 09:17:33;;;;;;;;;;;20.40;99.90;;;;;;5084648;28;19931;-77
2021/07/13 09:20:12;;;;;;;;;;;20.20;99.90;;;;;;5092987;28;19934;-77
2021/07/13 09:22:40;;;;;;;;;;;20.20;99.90;;;;;;5090794;28;19932;-77
2021/07/13 09:25:23;;;;;;;;;;;20.00;99.90;;;;;;5090071;28;19989;-78
2021/07/13 09:28:06;;;;;;;;;;;19.80;99.90;;;;;;5091333;28;19934;-76
2021/07/13 09:30:34;;;;;;;;;;;19.70;99.90;;;;;;5083957;28;19951;-77
2021/07/13 09:33:10;;;;;;;;;;;19.90;99.90;;;;;;5083500;28;19946;-78
2021/07/13 09:35:37;;;;;;;;;;;19.70;99.90;;;;;;5112490;27;19932;-78
2021/07/13 09:38:04;;;;;;;;;;;19.80;99.90;;;;;;5083551;28;20322;-77
2021/07/13 09:40:34;;;;;;;;;;;19.80;99.90;;;;;;5082482;28;19935;-77
2021/07/13 09:43:02;;;;;;;;;;;19.80;99.90;;;;;;5082487;28;19956;-78
2021/07/13 09:45:33;;;;;;;;;;;19.80;99.90;;;;;;5083212;28;20007;-78
2021/07/13 09:48:12;;;;;;;;;;;19.90;99.90;;;;;;5083596;28;19992;-80
2021/07/13 09:50:40;;;;;;;;;;;19.90;99.90;;;;;;5080364;28;20456;-78
2021/07/13 09:53:09;;;;;;;;;;;19.70;99.90;;;;;;5080514;28;19927;-78
2021/07/13 09:55:36;;;;;;;;;;;19.70;99.90;;;;;;5079014;28;19932;-78
2021/07/13 09:58:13;;;;;;;;;;;19.80;99.90;;;;;;5078811;28;19928;-79
2021/07/13 10:00:41;;;;;;;;;;;19.70;99.90;;;;;;5081363;28;20290;-78
2021/07/13 10:03:13;;;;;;;;;;;19.70;99.90;;;;;;5082075;28;19944;-78
2021/07/13 10:05:42;;;;;;;;;;;19.80;99.90;;;;;;5081587;28;20023;-79
2021/07/13 10:08:10;;;;;;;;;;;19.70;99.90;;;;;;5077230;28;19983;-82
2021/07/13 10:10:40;;;;;;;;;;;19.80;99.90;;;;;;5086735;28;19932;-81
2021/07/13 10:13:15;;;;;;;;;;;19.50;99.90;;;;;;5084608;28;19973;-85
2021/07/13 10:15:48;;;;;;;;;;;19.40;99.90;;;;;;5083038;28;20015;-84
2021/07/13 10:18:18;;;;;;;;;;;19.50;99.90;;;;;;5085397;28;20103;-83
2021/07/13 10:20:47;;;;;;;;;;;19.50;99.90;;;;;;5075764;28;19928;-76
2021/07/13 10:23:14;;;;;;;;;;;19.60;99.90;;;;;;5077794;28;19932;-78
2021/07/13 10:25:43;;;;;;;;;;;19.60;99.90;;;;;;5079037;28;19932;-82
2021/07/13 10:28:12;;;;;;;;;;;19.50;99.90;;;;;;5082209;28;20279;-82
2021/07/13 10:30:42;;;;;;;;;;;19.40;99.90;;;;;;5088925;28;19935;-75
2021/07/13 10:33:28;;;;;;;;;;;19.40;99.90;;;;;;5084449;28;20127;-82
2021/07/13 10:35:56;;;;;;;;;;;19.50;99.90;;;;;;5078983;28;19936;-82
2021/07/13 10:38:24;;;;;;;;;;;19.40;99.90;;;;;;5079026;28;19978;-82
2021/07/13 10:40:54;;;;;;;;;;;19.40;99.90;;;;;;5082322;28;19940;-78
2021/07/13 10:43:24;;;;;;;;;;;19.30;99.90;;;;;;5080405;28;19954;-79
2021/07/13 10:46:05;;;;;;;;;;;19.30;99.90;;;;;;5076957;28;19928;-80
2021/07/13 10:48:32;;;;;;;;;;;19.20;99.90;;;;;;5076684;28;19932;-80
2021/07/13 10:51:05;;;;;;;;;;;18.70;99.90;;;;;;5080606;28;19928;-79
2021/07/13 10:53:42;;;;;;;;;;;17.90;99.90;;;;;;5081322;28;19981;-79
2021/07/13 10:56:17;;;;;;;;;;;17.80;99.90;;;;;;5082320;28;20043;-79
2021/07/13 10:58:45;;;;;;;;;;;17.30;99.90;;;;;;5076530;28;19938;-78
2021/07/13 11:01:14;;;;;;;;;;;17.00;99.90;;;;;;5077521;28;19932;-80
2021/07/13 11:03:41;;;;;;;;;;;17.00;99.90;;;;;;5074133;28;20004;-79
2021/07/13 11:06:16;;;;;;;;;;;16.70;99.90;;;;;;5080561;28;20437;-79
2021/07/13 11:11:18;;;;;;;;;;;16.40;99.90;;;;;;5077253;28;19939;-78
2021/07/13 11:13:51;;;;;;;;;;;16.40;99.90;;;;;;5076730;28;19932;-84
2021/07/13 11:16:23;;;;;;;;;;;16.40;99.90;;;;;;5075908;28;19959;-76
2021/07/13 11:18:50;;;;;;;;;;;16.80;99.90;;;;;;5075166;28;20338;-76
2021/07/13 11:21:24;;;;;;;;;;;16.70;99.90;;;;;;5078203;28;19932;-77
2021/07/13 11:23:52;;;;;;;;;;;16.70;99.90;;;;;;5071810;28;19933;-76
2021/07/13 11:26:20;;;;;;;;;;;16.70;99.90;;;;;;5078647;28;19929;-76
2021/07/13 11:28:48;;;;;;;;;;;16.50;99.90;;;;;;5077587;28;20142;-76
2021/07/13 11:31:19;;;;;;;;;;;16.70;99.90;;;;;;5076528;28;19932;-76
2021/07/13 11:33:56;;;;;;;;;;;16.60;99.90;;;;;;5079737;28;20434;-75
2021/07/13 11:36:23;;;;;;;;;;;16.60;99.90;;;;;;5083535;28;19982;-76
2021/07/13 11:38:50;;;;;;;;;;;16.70;99.90;;;;;;5079201;28;20395;-75
2021/07/13 11:41:17;;;;;;;;;;;16.60;99.90;;;;;;5085922;28;19928;-72
2021/07/13 11:43:44;;;;;;;;;;;16.90;99.90;;;;;;5082790;28;19932;-76
2021/07/13 11:46:15;;;;;;;;;;;16.80;99.90;;;;;;5085303;28;20288;-77
2021/07/13 11:48:52;;;;;;;;;;;16.70;99.90;;;;;;5114625;27;20264;-77
2021/07/13 11:51:34;;;;;;;;;;;16.80;99.90;;;;;;5085148;28;19931;-76
2021/07/13 11:54:11;;;;;;;;;;;17.00;99.90;;;;;;5081191;28;19932;-72
2021/07/13 11:56:39;;;;;;;;;;;17.30;99.90;;;;;;5082343;28;19932;-70
2021/07/13 11:59:06;;;;;;;;;;;17.10;99.90;;;;;;5082137;28;21142;-69
2021/07/13 12:01:34;;;;;;;;;;;17.20;99.90;;;;;;5081271;28;19932;-69
2021/07/13 12:04:05;;;;;;;;;;;17.20;99.90;;;;;;5084457;28;19924;-68
2021/07/13 12:06:32;;;;;;;;;;;17.30;99.90;;;;;;5084069;28;19939;-69
2021/07/13 12:09:04;;;;;;;;;;;17.30;99.90;;;;;;5078123;28;19928;-78
2021/07/13 12:11:31;;;;;;;;;;;17.60;99.90;;;;;;5082313;28;19939;-71
2021/07/13 12:13:59;;;;;;;;;;;17.50;99.90;;;;;;5086545;28;19957;-77
2021/07/13 12:16:30;;;;;;;;;;;17.30;99.90;;;;;;5086002;28;20336;-78
2021/07/13 12:18:59;;;;;;;;;;;17.20;99.90;;;;;;5084070;28;20054;-77
2021/07/13 12:21:26;;;;;;;;;;;17.20;99.90;;;;;;5081355;28;20356;-77
2021/07/13 12:23:56;;;;;;;;;;;17.10;99.90;;;;;;5080730;28;20522;-73
2021/07/13 12:26:29;;;;;;;;;;;17.20;99.90;;;;;;5081226;28;19939;-74
2021/07/13 12:29:00;;;;;;;;;;;17.20;99.90;;;;;;5080735;28;19967;-82
2021/07/13 12:31:27;;;;;;;;;;;17.20;99.90;;;;;;5085022;28;20294;-76
2021/07/13 12:33:54;;;;;;;;;;;17.50;99.90;;;;;;5093340;28;19931;-75
2021/07/13 12:36:27;;;;;;;;;;;17.60;99.90;;;;;;5092824;28;19955;-77
2021/07/13 12:38:55;;;;;;;;;;;17.40;99.90;;;;;;5089047;28;19939;-78
2021/07/13 12:41:26;;;;;;;;;;;17.70;99.90;;;;;;5094754;28;19942;-81
2021/07/13 12:43:53;;;;;;;;;;;17.80;99.90;;;;;;5089437;28;20414;-73
2021/07/13 12:46:27;;;;;;;;;;;17.40;99.90;;;;;;5092868;28;19936;-75
2021/07/13 12:48:55;;;;;;;;;;;17.50;99.90;;;;;;5089669;28;19942;-73
2021/07/13 12:51:26;;;;;;;;;;;17.70;99.90;;;;;;5091616;28;19934;-73
2021/07/13 12:54:03;;;;;;;;;;;17.40;99.90;;;;;;5089964;28;19931;-74
2021/07/13 12:56:30;;;;;;;;;;;17.50;99.90;;;;;;5091185;28;19928;-73
2021/07/13 12:59:07;;;;;;;;;;;17.70;99.90;;;;;;5091075;28;19927;-71
2021/07/13 13:01:34;;;;;;;;;;;17.70;99.90;;;;;;5087757;28;19939;-73
2021/07/13 13:04:15;;;;;;;;;;;17.50;99.90;;;;;;5089372;28;19932;-75
2021/07/13 13:06:45;;;;;;;;;;;17.50;99.90;;;;;;5092320;28;20382;-76
2021/07/13 13:09:13;;;;;;;;;;;17.80;99.90;;;;;;5091356;28;19934;-76
2021/07/13 13:11:43;;;;;;;;;;;17.40;99.90;;;;;;5088049;28;19936;-74
2021/07/13 13:14:13;;;;;;;;;;;17.30;99.90;;;;;;5089084;28;19932;-75
2021/07/13 13:16:40;;;;;;;;;;;17.60;99.90;;;;;;5086596;28;19938;-76
2021/07/13 13:19:08;;;;;;;;;;;17.50;99.90;;;;;;5088214;28;19932;-75
2021/07/13 13:21:38;;;;;;;;;;;17.50;99.90;;;;;;5087745;28;19932;-79
2021/07/13 13:24:08;;;;;;;;;;;17.40;99.90;;;;;;5089183;28;20390;-75
2021/07/13 13:26:35;;;;;;;;;;;17.50;99.90;;;;;;5090774;28;19928;-74
2021/07/13 13:29:02;;;;;;;;;;;17.30;99.90;;;;;;5086543;28;20283;-75
2021/07/13 13:31:29;;;;;;;;;;;17.20;99.90;;;;;;5091719;28;21472;-73
2021/07/13 13:33:57;;;;;;;;;;;17.40;99.90;;;;;;5089161;28;19932;-72
2021/07/13 13:36:28;;;;;;;;;;;17.40;99.90;;;;;;5087744;28;19959;-73
2021/07/13 13:41:24;;;;;;;;;;;17.40;99.90;;;;;;5088318;28;19938;-80
2021/07/13 13:43:51;;;;;;;;;;;17.30;99.90;;;;;;5090039;28;19932;-81
2021/07/13 13:46:17;;;;;;;;;;;17.20;99.90;;;;;;5090225;28;19992;-81
2021/07/13 13:48:44;;;;;;;;;;;17.20;99.90;;;;;;5088427;28;20529;-80
2021/07/13 13:51:11;;;;;;;;;;;17.30;99.90;;;;;;5090832;28;19993;-80
2021/07/13 13:53:39;;;;;;;;;;;17.20;99.90;;;;;;5087922;28;19954;-77
2021/07/13 13:56:13;;;;;;;;;;;17.30;99.90;;;;;;5086749;28;19981;-78
2021/07/13 13:58:40;;;;;;;;;;;17.30;99.90;;;;;;5091730;28;19931;-79
2021/07/13 14:01:11;;;;;;;;;;;17.30;99.90;;;;;;5091509;28;19932;-79
2021/07/13 14:03:38;;;;;;;;;;;17.30;99.90;;;;;;5089438;28;19980;-80
2021/07/13 14:06:06;;;;;;;;;;;17.50;99.90;;;;;;5088147;28;19947;-79
2021/07/13 14:08:33;;;;;;;;;;;17.60;99.90;;;;;;5088731;28;19955;-80
2021/07/13 14:11:00;;;;;;;;;;;17.60;99.90;;;;;;5107123;27;19931;-80
2021/07/13 14:13:28;;;;;;;;;;;17.60;99.90;;;;;;5090123;28;19932;-78
2021/07/13 14:15:55;;;;;;;;;;;17.70;99.90;;;;;;5090521;28;20577;-79
2021/07/13 14:18:22;;;;;;;;;;;17.80;99.90;;;;;;5085311;28;19939;-76
2021/07/13 14:20:50;;;;;;;;;;;17.90;99.90;;;;;;5097461;28;20283;-78
2021/07/13 14:23:18;;;;;;;;;;;18.00;99.90;;;;;;5090448;28;19928;-78
2021/07/13 14:25:45;;;;;;;;;;;17.80;99.90;;;;;;5094228;28;20541;-80
2021/07/13 14:28:12;;;;;;;;;;;18.00;99.90;;;;;;5090062;28;19928;-80
2021/07/13 14:30:39;;;;;;;;;;;18.20;99.90;;;;;;5091644;28;19976;-80